sensor_id;sensor_type;location;lat;lon;timestamp;pressure;altitude;pressure_sealevel;temperature;humidity
33625;BME280;19962;47.820;1.930;2023-07-13T00:01:28;100619.81;;;21.69;48.16
33625;BME280;19962;47.820;1.930;2023-07-13T00:03:56;100621.75;;;21.68;48.12
33625;BME280;19962;47.820;1.930;2023-07-13T00:06:22;100622.38;;;21.65;48.25
33625;BME280;19962;47.820;1.930;2023-07-13T00:08:48;100626.91;;;21.61;48.47
33625;BME280;19962;47.820;1.930;2023-07-13T00:11:16;100627.72;;;21.62;48.44
33625;BME280;19962;47.820;1.930;2023-07-13T00:13:43;100620.69;;;21.64;48.67
33625;BME280;19962;47.820;1.930;2023-07-13T00:16:11;100621.81;;;21.63;48.43
33625;BME280;19962;47.820;1.930;2023-07-13T00:18:39;100623.84;;;21.58;48.59
33625;BME280;19962;47.820;1.930;2023-07-13T00:21:05;100620.84;;;21.54;48.63
33625;BME280;19962;47.820;1.930;2023-07-13T00:23:34;100630.94;;;21.50;48.75
33625;BME280;19962;47.820;1.930;2023-07-13T00:26:01;100623.41;;;21.51;48.51
33625;BME280;19962;47.820;1.930;2023-07-13T00:28:28;100623.84;;;21.39;49.00
33625;BME280;19962;47.820;1.930;2023-07-13T00:30:54;100628.31;;;21.40;49.06
33625;BME280;19962;47.820;1.930;2023-07-13T00:33:20;100628.00;;;21.42;49.22
33625;BME280;19962;47.820;1.930;2023-07-13T00:35:46;100637.81;;;21.39;49.37
33625;BME280;19962;47.820;1.930;2023-07-13T00:38:12;100636.69;;;21.40;49.28
33625;BME280;19962;47.820;1.930;2023-07-13T00:40:38;100637.25;;;21.37;49.30
33625;BME280;19962;47.820;1.930;2023-07-13T00:43:30;100644.50;;;21.38;49.45
33625;BME280;19962;47.820;1.930;2023-07-13T00:48:29;100640.69;;;21.34;49.28
33625;BME280;19962;47.820;1.930;2023-07-13T00:50:59;100646.25;;;21.34;49.50
33625;BME280;19962;47.820;1.930;2023-07-13T00:53:27;100646.53;;;21.33;49.32
33625;BME280;19962;47.820;1.930;2023-07-13T00:55:56;100648.78;;;21.31;49.60
33625;BME280;19962;47.820;1.930;2023-07-13T00:58:24;100655.81;;;21.28;49.46
33625;BME280;19962;47.820;1.930;2023-07-13T01:00:51;100655.72;;;21.33;49.39
33625;BME280;19962;47.820;1.930;2023-07-13T01:03:19;100658.88;;;21.27;49.51
33625;BME280;19962;47.820;1.930;2023-07-13T01:05:48;100661.00;;;21.16;49.79
33625;BME280;19962;47.820;1.930;2023-07-13T01:08:14;100651.94;;;21.24;49.64
33625;BME280;19962;47.820;1.930;2023-07-13T01:10:50;100662.28;;;21.24;49.49
33625;BME280;19962;47.820;1.930;2023-07-13T01:13:16;100667.63;;;21.20;49.63
33625;BME280;19962;47.820;1.930;2023-07-13T01:15:46;100663.47;;;21.18;49.72
33625;BME280;19962;47.820;1.930;2023-07-13T01:18:24;100666.78;;;21.20;49.93
33625;BME280;19962;47.820;1.930;2023-07-13T01:20:59;100676.31;;;21.19;50.10
33625;BME280;19962;47.820;1.930;2023-07-13T01:23:27;100668.22;;;21.17;49.74
33625;BME280;19962;47.820;1.930;2023-07-13T01:25:53;100680.81;;;21.15;49.78
33625;BME280;19962;47.820;1.930;2023-07-13T01:28:22;100674.63;;;21.18;49.69
33625;BME280;19962;47.820;1.930;2023-07-13T01:30:49;100676.59;;;21.17;49.75
33625;BME280;19962;47.820;1.930;2023-07-13T01:33:17;100673.25;;;21.15;49.67
33625;BME280;19962;47.820;1.930;2023-07-13T01:35:46;100666.09;;;21.09;49.86
33625;BME280;19962;47.820;1.930;2023-07-13T01:38:18;100679.88;;;21.01;50.34
33625;BME280;19962;47.820;1.930;2023-07-13T01:40:45;100682.44;;;20.92;50.32
33625;BME280;19962;47.820;1.930;2023-07-13T01:43:11;100672.06;;;20.98;50.04
33625;BME280;19962;47.820;1.930;2023-07-13T01:45:38;100684.59;;;21.00;50.09
33625;BME280;19962;47.820;1.930;2023-07-13T01:48:05;100689.41;;;20.90;50.34
33625;BME280;19962;47.820;1.930;2023-07-13T01:50:33;100685.19;;;20.97;50.38
33625;BME280;19962;47.820;1.930;2023-07-13T01:52:59;100678.44;;;21.03;50.22
33625;BME280;19962;47.820;1.930;2023-07-13T01:55:25;100684.00;;;21.03;50.00
33625;BME280;19962;47.820;1.930;2023-07-13T01:57:52;100678.53;;;20.93;50.44
33625;BME280;19962;47.820;1.930;2023-07-13T02:00:18;100681.88;;;20.95;50.34
33625;BME280;19962;47.820;1.930;2023-07-13T02:02:44;100687.44;;;20.95;50.30
33625;BME280;19962;47.820;1.930;2023-07-13T02:05:11;100691.09;;;20.91;50.58
33625;BME280;19962;47.820;1.930;2023-07-13T02:07:37;100687.75;;;20.89;50.38
33625;BME280;19962;47.820;1.930;2023-07-13T02:10:04;100689.69;;;20.88;50.63
33625;BME280;19962;47.820;1.930;2023-07-13T02:12:31;100684.13;;;20.88;50.59
33625;BME280;19962;47.820;1.930;2023-07-13T02:14:57;100688.41;;;20.81;50.85
33625;BME280;19962;47.820;1.930;2023-07-13T02:17:23;100685.31;;;20.82;50.85
33625;BME280;19962;47.820;1.930;2023-07-13T02:19:49;100681.44;;;20.78;50.82
33625;BME280;19962;47.820;1.930;2023-07-13T02:22:15;100684.53;;;20.77;51.14
33625;BME280;19962;47.820;1.930;2023-07-13T02:24:41;100680.66;;;20.73;50.98
33625;BME280;19962;47.820;1.930;2023-07-13T02:27:07;100683.09;;;20.79;51.00
33625;BME280;19962;47.820;1.930;2023-07-13T02:29:33;100690.34;;;20.80;51.18
33625;BME280;19962;47.820;1.930;2023-07-13T02:31:59;100690.91;;;20.82;51.25
33625;BME280;19962;47.820;1.930;2023-07-13T02:34:25;100692.03;;;20.81;51.23
33625;BME280;19962;47.820;1.930;2023-07-13T02:36:52;100693.41;;;20.84;51.29
33625;BME280;19962;47.820;1.930;2023-07-13T02:39:18;100685.84;;;20.84;51.13
33625;BME280;19962;47.820;1.930;2023-07-13T02:41:44;100685.03;;;20.84;51.20
33625;BME280;19962;47.820;1.930;2023-07-13T02:44:12;100691.97;;;20.86;51.25
33625;BME280;19962;47.820;1.930;2023-07-13T02:46:39;100694.19;;;20.84;51.23
33625;BME280;19962;47.820;1.930;2023-07-13T02:49:05;100692.84;;;20.82;51.12
33625;BME280;19962;47.820;1.930;2023-07-13T02:51:32;100694.81;;;20.81;51.47
33625;BME280;19962;47.820;1.930;2023-07-13T02:54:02;100698.69;;;20.80;51.19
33625;BME280;19962;47.820;1.930;2023-07-13T02:56:31;100699.25;;;20.82;51.17
33625;BME280;19962;47.820;1.930;2023-07-13T02:58:57;100698.69;;;20.80;51.39
33625;BME280;19962;47.820;1.930;2023-07-13T03:01:24;100703.22;;;20.76;51.25
33625;BME280;19962;47.820;1.930;2023-07-13T03:03:51;100708.81;;;20.76;51.53
33625;BME280;19962;47.820;1.930;2023-07-13T03:06:17;100702.91;;;20.78;51.69
33625;BME280;19962;47.820;1.930;2023-07-13T03:08:44;100707.06;;;20.80;51.85
33625;BME280;19962;47.820;1.930;2023-07-13T03:11:17;100707.06;;;20.80;51.84
33625;BME280;19962;47.820;1.930;2023-07-13T03:13:44;100705.41;;;20.79;51.95
33625;BME280;19962;47.820;1.930;2023-07-13T03:16:11;100708.81;;;20.76;51.92
33625;BME280;19962;47.820;1.930;2023-07-13T03:18:38;100709.09;;;20.75;51.94
33625;BME280;19962;47.820;1.930;2023-07-13T03:21:04;100707.16;;;20.70;52.02
33625;BME280;19962;47.820;1.930;2023-07-13T03:23:31;100709.38;;;20.73;52.21
33625;BME280;19962;47.820;1.930;2023-07-13T03:26:06;100715.44;;;20.80;52.23
33625;BME280;19962;47.820;1.930;2023-07-13T03:28:33;100712.97;;;20.79;51.97
33625;BME280;19962;47.820;1.930;2023-07-13T03:31:05;100715.47;;;20.75;52.22
33625;BME280;19962;47.820;1.930;2023-07-13T03:33:31;100713.81;;;20.74;52.11
33625;BME280;19962;47.820;1.930;2023-07-13T03:35:58;100713.25;;;20.77;52.03
33625;BME280;19962;47.820;1.930;2023-07-13T03:38:24;100723.56;;;20.77;52.28
33625;BME280;19962;47.820;1.930;2023-07-13T03:40:50;100717.19;;;20.76;52.10
33625;BME280;19962;47.820;1.930;2023-07-13T03:43:17;100722.75;;;20.76;52.28
33625;BME280;19962;47.820;1.930;2023-07-13T03:45:43;100729.44;;;20.75;52.26
33625;BME280;19962;47.820;1.930;2023-07-13T03:48:09;100739.75;;;20.75;52.33
33625;BME280;19962;47.820;1.930;2023-07-13T03:50:35;100734.53;;;20.68;52.56
33625;BME280;19962;47.820;1.930;2023-07-13T03:53:01;100745.41;;;20.65;52.79
33625;BME280;19962;47.820;1.930;2023-07-13T03:55:27;100741.81;;;20.64;52.87
33625;BME280;19962;47.820;1.930;2023-07-13T03:57:59;100749.94;;;20.61;53.07
33625;BME280;19962;47.820;1.930;2023-07-13T04:00:25;100756.03;;;20.63;52.73
33625;BME280;19962;47.820;1.930;2023-07-13T04:02:51;100759.16;;;20.56;52.84
33625;BME280;19962;47.820;1.930;2023-07-13T04:05:18;100756.97;;;20.48;53.08
33625;BME280;19962;47.820;1.930;2023-07-13T04:07:44;100754.19;;;20.48;53.18
33625;BME280;19962;47.820;1.930;2023-07-13T04:10:10;100757.59;;;20.40;53.18
33625;BME280;19962;47.820;1.930;2023-07-13T04:12:36;100767.69;;;20.36;53.47
33625;BME280;19962;47.820;1.930;2023-07-13T04:15:03;100775.47;;;20.34;53.74
33625;BME280;19962;47.820;1.930;2023-07-13T04:17:29;100769.59;;;20.41;53.24
33625;BME280;19962;47.820;1.930;2023-07-13T04:19:55;100765.94;;;20.45;53.33
33625;BME280;19962;47.820;1.930;2023-07-13T04:22:21;100772.94;;;20.43;53.21
33625;BME280;19962;47.820;1.930;2023-07-13T04:24:47;100775.16;;;20.41;53.48
33625;BME280;19962;47.820;1.930;2023-07-13T04:27:13;100775.72;;;20.43;53.36
33625;BME280;19962;47.820;1.930;2023-07-13T04:29:39;100775.13;;;20.46;53.11
33625;BME280;19962;47.820;1.930;2023-07-13T04:32:06;100771.84;;;20.39;53.54
33625;BME280;19962;47.820;1.930;2023-07-13T04:34:32;100771.25;;;20.42;53.18
33625;BME280;19962;47.820;1.930;2023-07-13T04:37:00;100782.34;;;20.47;53.31
33625;BME280;19962;47.820;1.930;2023-07-13T04:39:26;100778.19;;;20.44;53.20
33625;BME280;19962;47.820;1.930;2023-07-13T04:41:53;100782.09;;;20.43;53.34
33625;BME280;19962;47.820;1.930;2023-07-13T04:44:19;100774.88;;;20.42;53.06
33625;BME280;19962;47.820;1.930;2023-07-13T04:46:45;100774.91;;;20.37;53.31
33625;BME280;19962;47.820;1.930;2023-07-13T04:49:11;100777.94;;;20.41;53.23
33625;BME280;19962;47.820;1.930;2023-07-13T04:51:37;100780.47;;;20.37;53.26
33625;BME280;19962;47.820;1.930;2023-07-13T04:54:03;100786.09;;;20.32;53.12
33625;BME280;19962;47.820;1.930;2023-07-13T04:56:30;100787.19;;;20.31;53.40
33625;BME280;19962;47.820;1.930;2023-07-13T04:58:56;100792.22;;;20.29;53.64
33625;BME280;19962;47.820;1.930;2023-07-13T05:01:24;100791.19;;;20.20;53.84
33625;BME280;19962;47.820;1.930;2023-07-13T05:03:50;100801.75;;;20.23;53.84
33625;BME280;19962;47.820;1.930;2023-07-13T05:06:16;100794.50;;;20.27;53.94
33625;BME280;19962;47.820;1.930;2023-07-13T05:08:43;100796.44;;;20.27;53.82
33625;BME280;19962;47.820;1.930;2023-07-13T05:11:09;100795.31;;;20.28;53.92
33625;BME280;19962;47.820;1.930;2023-07-13T05:13:35;100797.59;;;20.21;54.03
33625;BME280;19962;47.820;1.930;2023-07-13T05:16:05;100803.41;;;20.24;54.09
33625;BME280;19962;47.820;1.930;2023-07-13T05:18:33;100799.75;;;20.29;54.01
33625;BME280;19962;47.820;1.930;2023-07-13T05:21:02;100791.09;;;20.30;53.95
33625;BME280;19962;47.820;1.930;2023-07-13T05:23:29;100794.44;;;20.32;54.00
33625;BME280;19962;47.820;1.930;2023-07-13T05:25:56;100791.66;;;20.32;54.08
33625;BME280;19962;47.820;1.930;2023-07-13T05:28:22;100793.59;;;20.32;54.02
33625;BME280;19962;47.820;1.930;2023-07-13T05:30:49;100795.25;;;20.33;54.04
33625;BME280;19962;47.820;1.930;2023-07-13T05:33:16;100798.34;;;20.36;53.97
33625;BME280;19962;47.820;1.930;2023-07-13T05:35:42;100798.56;;;20.40;53.94
33625;BME280;19962;47.820;1.930;2023-07-13T05:38:09;100797.69;;;20.44;53.96
33625;BME280;19962;47.820;1.930;2023-07-13T05:40:35;100798.25;;;20.46;54.33
33625;BME280;19962;47.820;1.930;2023-07-13T05:43:01;100807.72;;;20.50;54.10
33625;BME280;19962;47.820;1.930;2023-07-13T05:45:27;100803.22;;;20.54;54.10
33625;BME280;19962;47.820;1.930;2023-07-13T05:47:53;100812.69;;;20.53;54.20
33625;BME280;19962;47.820;1.930;2023-07-13T05:50:20;100813.53;;;20.54;54.35
33625;BME280;19962;47.820;1.930;2023-07-13T05:52:47;100818.25;;;20.58;54.12
33625;BME280;19962;47.820;1.930;2023-07-13T05:55:14;100816.53;;;20.62;54.37
33625;BME280;19962;47.820;1.930;2023-07-13T05:57:41;100818.44;;;20.67;54.06
33625;BME280;19962;47.820;1.930;2023-07-13T06:00:07;100821.78;;;20.69;53.87
33625;BME280;19962;47.820;1.930;2023-07-13T06:02:33;100817.56;;;20.71;53.96
33625;BME280;19962;47.820;1.930;2023-07-13T06:05:00;100815.88;;;20.75;53.82
33625;BME280;19962;47.820;1.930;2023-07-13T06:07:26;100825.59;;;20.78;53.83
33625;BME280;19962;47.820;1.930;2023-07-13T06:09:52;100818.94;;;20.79;53.94
33625;BME280;19962;47.820;1.930;2023-07-13T06:12:19;100820.63;;;20.75;54.14
33625;BME280;19962;47.820;1.930;2023-07-13T06:14:45;100830.44;;;20.67;54.48
33625;BME280;19962;47.820;1.930;2023-07-13T06:17:11;100829.56;;;20.72;54.26
33625;BME280;19962;47.820;1.930;2023-07-13T06:19:37;100831.75;;;20.80;54.13
33625;BME280;19962;47.820;1.930;2023-07-13T06:22:03;100833.09;;;20.82;54.51
33625;BME280;19962;47.820;1.930;2023-07-13T06:24:30;100834.72;;;20.88;54.27
33625;BME280;19962;47.820;1.930;2023-07-13T06:26:56;100833.06;;;20.92;54.38
33625;BME280;19962;47.820;1.930;2023-07-13T06:29:22;100841.97;;;20.94;54.29
33625;BME280;19962;47.820;1.930;2023-07-13T06:31:48;100840.84;;;20.95;54.13
33625;BME280;19962;47.820;1.930;2023-07-13T06:34:14;100838.53;;;21.02;54.07
33625;BME280;19962;47.820;1.930;2023-07-13T06:36:40;100834.88;;;21.07;53.90
33625;BME280;19962;47.820;1.930;2023-07-13T06:39:07;100829.56;;;21.10;53.94
33625;BME280;19962;47.820;1.930;2023-07-13T06:41:33;100827.56;;;21.16;53.54
33625;BME280;19962;47.820;1.930;2023-07-13T06:43:59;100836.44;;;21.18;53.52
33625;BME280;19962;47.820;1.930;2023-07-13T06:46:28;100831.47;;;21.15;54.15
33625;BME280;19962;47.820;1.930;2023-07-13T06:48:54;100836.09;;;21.24;53.53
33625;BME280;19962;47.820;1.930;2023-07-13T06:51:20;100825.44;;;21.31;53.45
33625;BME280;19962;47.820;1.930;2023-07-13T06:53:46;100834.97;;;21.30;53.38
33625;BME280;19962;47.820;1.930;2023-07-13T06:56:12;100833.25;;;21.29;53.94
33625;BME280;19962;47.820;1.930;2023-07-13T06:58:38;100836.06;;;21.29;53.69
33625;BME280;19962;47.820;1.930;2023-07-13T07:01:05;100836.84;;;21.35;53.70
33625;BME280;19962;47.820;1.930;2023-07-13T07:03:31;100838.78;;;21.39;53.40
33625;BME280;19962;47.820;1.930;2023-07-13T07:06:23;100836.50;;;21.41;53.44
33625;BME280;19962;47.820;1.930;2023-07-13T07:08:52;100845.94;;;21.45;53.37
33625;BME280;19962;47.820;1.930;2023-07-13T07:11:21;100841.78;;;21.43;53.42
33625;BME280;19962;47.820;1.930;2023-07-13T07:13:51;100838.13;;;21.47;53.45
33625;BME280;19962;47.820;1.930;2023-07-13T07:16:18;100849.53;;;21.51;53.48
33625;BME280;19962;47.820;1.930;2023-07-13T07:18:45;100842.59;;;21.48;53.80
33625;BME280;19962;47.820;1.930;2023-07-13T07:21:12;100844.81;;;21.46;53.93
33625;BME280;19962;47.820;1.930;2023-07-13T07:23:39;100854.84;;;21.52;53.95
33625;BME280;19962;47.820;1.930;2023-07-13T07:26:05;100854.72;;;21.62;53.76
33625;BME280;19962;47.820;1.930;2023-07-13T07:28:33;100855.50;;;21.68;53.37
33625;BME280;19962;47.820;1.930;2023-07-13T07:30:59;100866.94;;;21.71;53.44
33625;BME280;19962;47.820;1.930;2023-07-13T07:33:25;100867.31;;;21.60;53.71
33625;BME280;19962;47.820;1.930;2023-07-13T07:35:52;100872.06;;;21.59;53.46
33625;BME280;19962;47.820;1.930;2023-07-13T07:38:18;100877.63;;;21.59;53.46
33625;BME280;19962;47.820;1.930;2023-07-13T07:40:44;100873.75;;;21.55;53.67
33625;BME280;19962;47.820;1.930;2023-07-13T07:43:12;100872.66;;;21.56;53.42
33625;BME280;19962;47.820;1.930;2023-07-13T07:45:39;100862.06;;;21.53;53.70
33625;BME280;19962;47.820;1.930;2023-07-13T07:48:07;100871.59;;;21.52;53.66
33625;BME280;19962;47.820;1.930;2023-07-13T07:50:33;100869.41;;;21.44;53.73
33625;BME280;19962;47.820;1.930;2023-07-13T07:52:59;100866.91;;;21.43;53.69
33625;BME280;19962;47.820;1.930;2023-07-13T07:55:28;100879.16;;;21.47;53.72
33625;BME280;19962;47.820;1.930;2023-07-13T07:57:56;100877.16;;;21.52;53.51
33625;BME280;19962;47.820;1.930;2023-07-13T08:00:22;100879.91;;;21.57;53.24
33625;BME280;19962;47.820;1.930;2023-07-13T08:02:49;100872.94;;;21.55;53.56
33625;BME280;19962;47.820;1.930;2023-07-13T08:05:15;100875.75;;;21.55;53.40
33625;BME280;19962;47.820;1.930;2023-07-13T08:07:41;100881.31;;;21.55;53.40
33625;BME280;19962;47.820;1.930;2023-07-13T08:10:08;100881.03;;;21.56;53.46
33625;BME280;19962;47.820;1.930;2023-07-13T08:12:38;100882.09;;;21.60;53.75
33625;BME280;19962;47.820;1.930;2023-07-13T08:15:05;100884.00;;;21.65;53.67
33625;BME280;19962;47.820;1.930;2023-07-13T08:17:32;100890.94;;;21.72;53.32
33625;BME280;19962;47.820;1.930;2023-07-13T08:19:58;100892.31;;;21.75;53.35
33625;BME280;19962;47.820;1.930;2023-07-13T08:22:24;100884.22;;;21.73;53.04
33625;BME280;19962;47.820;1.930;2023-07-13T08:24:50;100893.94;;;21.81;52.75
33625;BME280;19962;47.820;1.930;2023-07-13T08:27:22;100900.28;;;21.86;52.84
33625;BME280;19962;47.820;1.930;2023-07-13T08:29:49;100890.41;;;21.94;52.67
33625;BME280;19962;47.820;1.930;2023-07-13T08:32:16;100898.50;;;21.95;52.56
33625;BME280;19962;47.820;1.930;2023-07-13T08:34:42;100900.13;;;22.01;52.33
33625;BME280;19962;47.820;1.930;2023-07-13T08:37:09;100904.50;;;22.07;52.32
33625;BME280;19962;47.820;1.930;2023-07-13T08:39:35;100906.72;;;22.10;51.83
33625;BME280;19962;47.820;1.930;2023-07-13T08:42:11;100899.44;;;22.09;51.84
33625;BME280;19962;47.820;1.930;2023-07-13T08:44:41;100903.38;;;22.08;52.17
33625;BME280;19962;47.820;1.930;2023-07-13T08:47:11;100899.44;;;22.09;52.06
33625;BME280;19962;47.820;1.930;2023-07-13T08:49:38;100891.97;;;22.05;52.13
33625;BME280;19962;47.820;1.930;2023-07-13T08:52:12;100893.56;;;22.11;52.41
33625;BME280;19962;47.820;1.930;2023-07-13T08:54:45;100905.81;;;22.15;52.14
33625;BME280;19962;47.820;1.930;2023-07-13T08:57:17;100902.00;;;22.29;51.98
33625;BME280;19962;47.820;1.930;2023-07-13T08:59:45;100903.28;;;22.37;51.72
33625;BME280;19962;47.820;1.930;2023-07-13T09:02:17;100905.19;;;22.41;51.58
33625;BME280;19962;47.820;1.930;2023-07-13T09:04:47;100894.78;;;22.47;51.54
33625;BME280;19962;47.820;1.930;2023-07-13T09:07:40;100893.13;;;22.46;51.13
33625;BME280;19962;47.820;1.930;2023-07-13T09:10:16;100898.91;;;22.54;51.43
33625;BME280;19962;47.820;1.930;2023-07-13T09:15:31;100898.09;;;22.72;51.07
33625;BME280;19962;47.820;1.930;2023-07-13T09:20:54;100898.44;;;22.84;50.78
33625;BME280;19962;47.820;1.930;2023-07-13T09:23:23;100904.13;;;22.79;50.68
33625;BME280;19962;47.820;1.930;2023-07-13T09:25:53;100898.31;;;22.76;50.66
33625;BME280;19962;47.820;1.930;2023-07-13T09:28:27;100898.09;;;22.72;50.58
33625;BME280;19962;47.820;1.930;2023-07-13T09:31:02;100896.56;;;22.61;50.47
33625;BME280;19962;47.820;1.930;2023-07-13T09:33:29;100905.59;;;22.53;50.84
33625;BME280;19962;47.820;1.930;2023-07-13T09:35:59;100901.94;;;22.58;50.85
33625;BME280;19962;47.820;1.930;2023-07-13T09:38:28;100904.72;;;22.58;50.91
33625;BME280;19962;47.820;1.930;2023-07-13T09:43:36;100906.44;;;22.54;51.05
33625;BME280;19962;47.820;1.930;2023-07-13T09:46:02;100906.22;;;22.50;50.95
33625;BME280;19962;47.820;1.930;2023-07-13T09:48:35;100905.38;;;22.50;50.77
33625;BME280;19962;47.820;1.930;2023-07-13T09:51:15;100900.63;;;22.50;50.93
33625;BME280;19962;47.820;1.930;2023-07-13T09:53:42;100901.06;;;22.57;50.88
33625;BME280;19962;47.820;1.930;2023-07-13T09:56:22;100906.22;;;22.69;51.08
33625;BME280;19962;47.820;1.930;2023-07-13T09:58:49;100902.09;;;22.85;50.69
33625;BME280;19962;47.820;1.930;2023-07-13T10:01:15;100886.50;;;22.97;50.55
33625;BME280;19962;47.820;1.930;2023-07-13T10:03:53;100892.88;;;23.21;50.21
33625;BME280;19962;47.820;1.930;2023-07-13T10:06:21;100900.28;;;23.44;49.89
33625;BME280;19962;47.820;1.930;2023-07-13T10:08:50;100898.16;;;23.55;49.48
33625;BME280;19962;47.820;1.930;2023-07-13T10:16:17;100905.31;;;23.29;49.10
33625;BME280;19962;47.820;1.930;2023-07-13T10:18:48;100911.91;;;23.19;49.20
33625;BME280;19962;47.820;1.930;2023-07-13T10:21:18;100915.28;;;23.16;49.50
33625;BME280;19962;47.820;1.930;2023-07-13T10:24:01;100908.88;;;23.16;49.21
33625;BME280;19962;47.820;1.930;2023-07-13T10:26:33;100907.50;;;23.13;49.32
33625;BME280;19962;47.820;1.930;2023-07-13T10:29:06;100914.56;;;23.11;49.30
33625;BME280;19962;47.820;1.930;2023-07-13T10:31:37;100910.09;;;23.10;49.55
33625;BME280;19962;47.820;1.930;2023-07-13T10:34:04;100907.44;;;23.18;49.31
33625;BME280;19962;47.820;1.930;2023-07-13T10:36:40;100905.09;;;23.25;48.95
33625;BME280;19962;47.820;1.930;2023-07-13T10:39:16;100905.03;;;23.30;48.75
33625;BME280;19962;47.820;1.930;2023-07-13T10:41:45;100902.75;;;23.32;48.82
33625;BME280;19962;47.820;1.930;2023-07-13T10:44:28;100899.44;;;23.30;48.58
33625;BME280;19962;47.820;1.930;2023-07-13T10:47:00;100909.56;;;23.26;48.53
33625;BME280;19962;47.820;1.930;2023-07-13T10:49:29;100904.41;;;23.33;48.67
33625;BME280;19962;47.820;1.930;2023-07-13T10:51:56;100904.31;;;23.38;48.56
33625;BME280;19962;47.820;1.930;2023-07-13T10:54:34;100902.47;;;23.47;47.97
33625;BME280;19962;47.820;1.930;2023-07-13T10:57:20;100903.31;;;23.48;47.42
33625;BME280;19962;47.820;1.930;2023-07-13T11:02:35;100898.06;;;23.60;47.32
33625;BME280;19962;47.820;1.930;2023-07-13T11:05:34;100892.16;;;23.61;46.90
33625;BME280;19962;47.820;1.930;2023-07-13T11:08:16;100897.97;;;23.78;46.96
33625;BME280;19962;47.820;1.930;2023-07-13T11:10:53;100889.81;;;23.95;46.65
33625;BME280;19962;47.820;1.930;2023-07-13T11:13:55;100902.25;;;23.89;46.08
33625;BME280;19962;47.820;1.930;2023-07-13T11:18:52;100901.00;;;23.82;46.47
33625;BME280;19962;47.820;1.930;2023-07-13T11:21:19;100899.22;;;23.72;46.66
33625;BME280;19962;47.820;1.930;2023-07-13T11:23:55;100895.81;;;23.75;46.72
33625;BME280;19962;47.820;1.930;2023-07-13T11:31:59;100896.47;;;23.99;46.26
33625;BME280;19962;47.820;1.930;2023-07-13T11:34:33;100883.59;;;23.98;46.06
33625;BME280;19962;47.820;1.930;2023-07-13T11:37:01;100881.22;;;23.92;46.01
33625;BME280;19962;47.820;1.930;2023-07-13T11:39:33;100883.78;;;23.88;45.84
33625;BME280;19962;47.820;1.930;2023-07-13T11:42:09;100890.09;;;23.80;45.62
33625;BME280;19962;47.820;1.930;2023-07-13T11:44:46;100878.03;;;23.80;45.54
33625;BME280;19962;47.820;1.930;2023-07-13T11:47:22;100874.53;;;23.88;45.65
33625;BME280;19962;47.820;1.930;2023-07-13T11:49:53;100868.84;;;23.93;45.19
33625;BME280;19962;47.820;1.930;2023-07-13T11:52:33;100866.88;;;24.07;45.34
33625;BME280;19962;47.820;1.930;2023-07-13T11:55:02;100869.28;;;24.13;45.35
33625;BME280;19962;47.820;1.930;2023-07-13T11:57:32;100858.47;;;24.20;45.14
33625;BME280;19962;47.820;1.930;2023-07-13T12:00:03;100869.88;;;24.38;45.16
33625;BME280;19962;47.820;1.930;2023-07-13T12:02:45;100869.25;;;24.40;44.51
33625;BME280;19962;47.820;1.930;2023-07-13T12:05:13;100859.50;;;24.24;44.80
33625;BME280;19962;47.820;1.930;2023-07-13T12:07:40;100846.22;;;24.16;44.61
33625;BME280;19962;47.820;1.930;2023-07-13T12:10:20;100845.81;;;24.09;43.70
33625;BME280;19962;47.820;1.930;2023-07-13T12:12:52;100858.28;;;24.17;44.28
33625;BME280;19962;47.820;1.930;2023-07-13T12:15:19;100855.38;;;24.22;44.03
33625;BME280;19962;47.820;1.930;2023-07-13T12:17:46;100856.19;;;24.22;43.65
33625;BME280;19962;47.820;1.930;2023-07-13T12:20:24;100860.34;;;24.11;43.63
33625;BME280;19962;47.820;1.930;2023-07-13T12:22:51;100848.06;;;24.21;43.61
33625;BME280;19962;47.820;1.930;2023-07-13T12:25:19;100855.75;;;24.29;43.41
33625;BME280;19962;47.820;1.930;2023-07-13T12:27:50;100853.56;;;24.39;43.27
33625;BME280;19962;47.820;1.930;2023-07-13T12:30:28;100853.44;;;24.44;43.01
33625;BME280;19962;47.820;1.930;2023-07-13T12:33:10;100850.75;;;24.53;42.87
33625;BME280;19962;47.820;1.930;2023-07-13T12:35:49;100847.91;;;24.67;42.82
33625;BME280;19962;47.820;1.930;2023-07-13T12:38:16;100848.09;;;24.70;42.85
33625;BME280;19962;47.820;1.930;2023-07-13T12:40:43;100844.06;;;24.76;42.62
33625;BME280;19962;47.820;1.930;2023-07-13T12:43:13;100835.94;;;24.75;42.12
33625;BME280;19962;47.820;1.930;2023-07-13T12:48:21;100841.44;;;24.80;42.50
33625;BME280;19962;47.820;1.930;2023-07-13T12:50:49;100836.59;;;24.94;42.26
33625;BME280;19962;47.820;1.930;2023-07-13T12:53:24;100836.81;;;24.97;41.94
33625;BME280;19962;47.820;1.930;2023-07-13T12:55:57;100836.84;;;24.84;42.09
33625;BME280;19962;47.820;1.930;2023-07-13T12:58:30;100831.25;;;24.84;42.08
33625;BME280;19962;47.820;1.930;2023-07-13T13:00:59;100830.41;;;24.83;42.06
33625;BME280;19962;47.820;1.930;2023-07-13T13:03:34;100830.59;;;24.65;41.82
33625;BME280;19962;47.820;1.930;2023-07-13T13:06:17;100843.16;;;24.67;41.92
33625;BME280;19962;47.820;1.930;2023-07-13T13:08:47;100833.25;;;24.70;41.88
33625;BME280;19962;47.820;1.930;2023-07-13T13:11:15;100833.34;;;24.78;41.99
33625;BME280;19962;47.820;1.930;2023-07-13T13:13:42;100834.94;;;24.93;41.66
33625;BME280;19962;47.820;1.930;2023-07-13T13:18:44;100840.09;;;24.77;41.60
33625;BME280;19962;47.820;1.930;2023-07-13T13:21:10;100839.19;;;24.68;41.36
33625;BME280;19962;47.820;1.930;2023-07-13T13:23:37;100836.19;;;24.65;41.99
33625;BME280;19962;47.820;1.930;2023-07-13T13:26:05;100837.66;;;24.62;41.92
33625;BME280;19962;47.820;1.930;2023-07-13T13:28:34;100833.88;;;24.67;42.16
33625;BME280;19962;47.820;1.930;2023-07-13T13:31:00;100835.31;;;24.78;42.22